• Join FlightAware (Why Join?)
  • Login
  • US Flag 
10:43AM EDT


 

Airport Tracker/Info


-or-


 

Live Flight TrackerFlight Track Log ✈ DAL6089 ✈ 2013年 04月 28日 ✈ KMHT - KDTW

Flight Track Log - Related Links

Times and Time Zones

All times are in EDT time to prevent confusion due to time zone crossing. See the DAL6089 flight status page for this flight to view local times or setup timezone preferences in your user account.

Time Position Orientation Groundspeed Altitude Reporting Facility
EDT Latitude Longitude Course Direction KTS MPH feet Rate Location/Type
07:29AM 42.9500 -71.4167 274° West 163 188 1,100  Level KA90
07:30AM 42.9833 -71.4167 360° North 169 194 1,800 1,680 Climbing KA90
07:30AM 42.9839 -71.4608 271° West 236 272 2,800 1,740 Climbing Boston Center
07:31AM 42.9847 -71.5489 271° West 217 250 4,600 2,220 Climbing Boston Center
07:32AM 42.9352 -71.8261 285° West  Level FlightAware Approximate
07:32AM 42.9875 -71.6511 272° West 258 297 7,300  Level Boston Center
07:33AM 42.9500 -71.9553 270° West  Level FlightAware Approximate
07:33AM 42.9944 -71.7503 276° West 270 311 9,500  Level Boston Center
07:34AM 42.9501 -72.0871 270° West  Level FlightAware Approximate
07:34AM 42.9992 -71.8608 273° West 284 327 10,800  Level Boston Center
07:35AM 42.9501 -72.2189 274° West  Level FlightAware Approximate
07:35AM 43.0058 -71.9831 274° West 307 353 11,100  Level Boston Center
07:36AM 43.0106 -72.1050 273° West 324 373 12,700 1,680 Climbing Boston Center
07:37AM 43.0192 -72.2300 275° West 330 380 14,500 1,620 Climbing Boston Center
07:38AM 43.0278 -72.3406 276° West 330 380 16,000 1,500 Climbing Boston Center
07:39AM 43.0339 -72.4686 274° West 330 380 17,500 1,260 Climbing Boston Center
07:40AM 43.0400 -72.5964 274° West 330 380 18,600 1,260 Climbing Boston Center
07:41AM 43.0461 -72.7383 273° West 330 380 20,100 1,380 Climbing Boston Center
07:42AM 43.0519 -72.8719 273° West 341 392 21,400 1,200 Climbing Boston Center
07:43AM 43.0578 -72.9800 274° West 355 409 22,500 1,320 Climbing Boston Center
07:44AM 43.0672 -73.1506 274° West 371 427 24,100 1,380 Climbing Boston Center
07:45AM 43.0975 -73.2761 288° West 365 420 25,300 900 Climbing Boston Center
07:46AM 43.1258 -73.3903 289° West 353 406 26,000 660 Climbing Boston Center
07:47AM 43.1706 -73.5306 294° West 358 412 26,700 840 Climbing Boston Center
07:48AM 43.1942 -73.6703 283° West 365 420 27,700 900 Climbing Boston Center
07:49AM 43.2031 -73.7986 275° West 377 434 28,500 900 Climbing Boston Center
07:50AM 43.2033 -73.9411 270° West 377 434 29,500 960 Climbing Boston Center
07:51AM 43.2014 -74.0806 269° West 377 434 30,500 900 Climbing Boston Center
07:52AM 43.2014 -74.2258 270° West 377 434 31,400 900 Climbing Boston Center
07:53AM 43.1989 -74.3683 269° West 377 434 32,400 960 Climbing Boston Center
07:54AM 43.1986 -74.5136 270° West 382 440 33,400 780 Climbing Boston Center
07:55AM 43.1958 -74.6558 269° West 382 440 34,000 300 Climbing Boston Center
07:56AM 43.1928 -74.8039 268° West 382 440 34,000  Level Boston Center
07:57AM 43.1897 -74.9547 268° West 387 445 34,000  Level Boston Center
07:58AM 43.1861 -75.1142 268° West 387 445 34,000  Level Boston Center
07:59AM 43.1825 -75.2619 268° West 387 445 34,000  Level Boston Center
08:00AM 43.1786 -75.4128 268° West 387 445 34,000  Level Boston Center
08:01AM 43.1769 -75.5578 269° West 387 445 34,000  Level Boston Center
08:02AM 43.1747 -75.7058 269° West 387 445 34,000  Level Boston Center
08:03AM 43.1725 -75.8567 269° West 387 445 34,000  Level Boston Center
08:04AM 43.1681 -76.0044 268° West 387 445 34,000  Level Boston Center
08:05AM 43.1656 -76.1467 269° West 382 440 34,000  Level Boston Center
08:07AM 43.1439 -76.4142 264° West 379 436 34,000  Level Cleveland Center
08:08AM 43.1322 -76.5575 264° West 374 430 34,000  Level Cleveland Center
08:09AM 43.1203 -76.6975 263° West 374 430 34,000  Level Cleveland Center
08:10AM 43.1061 -76.8350 262° West 374 430 34,000  Level Cleveland Center
08:11AM 43.0939 -76.9750 263° West 374 430 34,000  Level Cleveland Center
08:12AM 43.0814 -77.1094 263° West 374 430 34,000  Level Cleveland Center
08:13AM 43.0686 -77.2467 263° West 374 430 34,000  Level Cleveland Center
08:14AM 43.0578 -77.3836 264° West 374 430 34,000  Level Cleveland Center
08:15AM 43.0428 -77.5208 262° West 374 430 34,000  Level Cleveland Center
08:16AM 43.0297 -77.6550 262° West 374 430 34,000  Level Cleveland Center
08:17AM 43.0164 -77.7947 263° West 374 430 34,000  Level Cleveland Center
08:18AM 43.0028 -77.9258 262° West 369 425 34,000  Level Cleveland Center
08:19AM 42.9892 -78.0628 262° West 369 425 34,000  Level Cleveland Center
08:20AM 42.9775 -78.1994 263° West 369 425 34,000  Level Cleveland Center
08:21AM 42.9636 -78.3333 262° West 369 425 34,000  Level Cleveland Center
08:22AM 42.9494 -78.4672 262° West 369 425 34,000  Level Cleveland Center
08:23AM 42.9331 -78.6039 261° West 369 425 34,000  Level Cleveland Center
08:24AM 42.9186 -78.7406 262° West 369 425 34,000  Level Cleveland Center
08:25AM 42.8978 -78.8742 258° West 369 425 34,000  Level Cleveland Center
08:26AM 42.8789 -79.0108 259° West 369 425 34,000 -360 Level Cleveland Center
08:27AM 42.8619 -79.1472 260° West 369 425 33,300 -1,140 Descending Cleveland Center
08:28AM 42.8406 -79.2836 258° West 375 432 31,800 -1,500 Descending Cleveland Center
08:29AM 42.8172 -79.4283 258° West 375 432 30,300 -1,500 Descending Cleveland Center
08:30AM 42.7956 -79.5758 259° West 387 445 28,800 -1,200 Descending Cleveland Center
08:31AM 42.7739 -79.7233 259° West 393 452 28,000 -420 Descending Cleveland Center
08:32AM 42.7519 -79.8736 259° West 399 459 28,000  Level Cleveland Center
08:33AM 42.7403 -80.0375 265° West 404 465 28,000  Level Cleveland Center
08:34AM 42.7367 -80.1903 268° West 404 465 28,000  Level Cleveland Center
08:35AM 42.7308 -80.3486 267° West 409 471 28,000  Level Cleveland Center
08:36AM 42.7228 -80.5042 266° West 419 482 28,000 -180 Level Cleveland Center
08:37AM 42.7164 -80.6622 267° West 426 490 27,700 -960 Descending Cleveland Center
08:38AM 42.7100 -80.8147 267° West 420 483 26,100 -1,560 Descending Cleveland Center
08:39AM 42.6972 -80.9731 264° West 426 490 24,600 -1,080 Descending Cleveland Center
08:40AM 42.6797 -81.1311 261° West 426 490 24,000 -300 Descending Cleveland Center
08:41AM 42.6622 -81.2861 261° West 426 490 24,000 -480 Level Cleveland Center
08:42AM 42.6447 -81.4244 260° West 421 484 23,100 -960 Descending Cleveland Center
08:43AM 42.6267 -81.5792 261° West 426 490 22,100 -1,200 Descending Cleveland Center
08:44AM 42.6086 -81.7369 261° West 426 490 20,800 -1,500 Descending Cleveland Center
08:45AM 42.5883 -81.8917 260° West 426 490 19,200 -1,500 Descending Cleveland Center
08:46AM 42.5697 -82.0436 261° West 426 490 17,900 -1,560 Descending Cleveland Center
08:47AM 42.5556 -82.1672 261° West 400 460 16,500 -5,940 Descending Cleveland Center
08:47AM 42.5511 -82.1869 253° West 411 473 12,000 -1,740 Descending Cleveland Center
08:48AM 42.5439 -82.2656 263° West 389 448 15,300 2,160 Climbing Cleveland Center
08:48AM 42.5325 -82.3300 257° West 405 466 14,200 -2,100 Descending Cleveland Center
08:49AM 42.5269 -82.4033 264° West 368 423 13,200 -1,800 Descending Cleveland Center
08:49AM 42.5156 -82.4678 257° West 390 449 12,400 -1,200 Descending Cleveland Center
08:50AM 42.5081 -82.5436 262° West 373 429 12,000 -1,020 Descending Cleveland Center
08:50AM 42.4883 -82.5992 244° Southwest 384 442 11,400 -1,320 Descending Cleveland Center
08:51AM 42.4661 -82.6717 247° West 331 381 10,700 -900 Descending Cleveland Center
08:51AM 42.4489 -82.7106 239° Southwest 357 411 10,500 -720 Descending Cleveland Center
08:52AM 42.4353 -82.7747 254° West 293 337 10,000 -1,140 Descending Cleveland Center
08:52AM 42.4322 -82.8169 264° West 321 369 9,400 -1,500 Descending Cleveland Center
08:53AM 42.4350 -82.8844 273° West 279 321 8,500 -1,620 Descending Cleveland Center
08:53AM 42.4322 -82.9236 265° West 299 344 7,800 -1,380 Descending Cleveland Center
08:54AM 42.4331 -82.9858 271° West 271 312 7,100 -840 Descending Cleveland Center
08:54AM 42.4322 -83.0167 268° West 273 314 7,000 -120 Descending Cleveland Center
08:55AM 42.4478 -83.0736 290° West 229 264 7,000 -540 Level Cleveland Center
08:55AM 42.4514 -83.1017 280° West 249 287 6,500 -1,380 Descending Cleveland Center
08:56AM 42.4481 -83.1608 266° West 217 250 5,600 -1,320 Descending Cleveland Center
08:56AM 42.4311 -83.1714 205° Southwest 232 267 5,200 -1,200 Descending Cleveland Center
08:57AM 42.4033 -83.2011 218° Southwest 178 205 4,400 -900 Descending Cleveland Center
08:58AM 42.3608 -83.2331 209° Southwest 179 206 3,800 -720 Descending Cleveland Center
08:59AM 42.3186 -83.2622 207° Southwest 163 188 3,000 -780 Descending Cleveland Center